sensor_id;sensor_type;location;lat;lon;timestamp;P1;durP1;ratioP1;P2;durP2;ratioP2
75737;SDS011;64356;45.638;13.764;2023-07-16T00:01:32;14.80;;;6.70;;
75737;SDS011;64356;45.638;13.764;2023-07-16T00:03:58;11.88;;;5.80;;
75737;SDS011;64356;45.638;13.764;2023-07-16T00:06:23;10.55;;;6.10;;
75737;SDS011;64356;45.638;13.764;2023-07-16T00:08:49;18.75;;;6.05;;
75737;SDS011;64356;45.638;13.764;2023-07-16T00:11:15;14.80;;;6.40;;
75737;SDS011;64356;45.638;13.764;2023-07-16T00:13:40;11.77;;;5.70;;
75737;SDS011;64356;45.638;13.764;2023-07-16T00:16:11;11.10;;;6.13;;
75737;SDS011;64356;45.638;13.764;2023-07-16T00:18:37;14.13;;;5.90;;
75737;SDS011;64356;45.638;13.764;2023-07-16T00:21:02;14.65;;;5.75;;
75737;SDS011;64356;45.638;13.764;2023-07-16T00:23:28;16.35;;;5.93;;
75737;SDS011;64356;45.638;13.764;2023-07-16T00:25:54;16.85;;;5.90;;
75737;SDS011;64356;45.638;13.764;2023-07-16T00:28:20;10.50;;;5.55;;
75737;SDS011;64356;45.638;13.764;2023-07-16T00:30:45;13.57;;;6.57;;
75737;SDS011;64356;45.638;13.764;2023-07-16T00:33:11;13.10;;;5.65;;
75737;SDS011;64356;45.638;13.764;2023-07-16T00:35:37;20.33;;;5.93;;
75737;SDS011;64356;45.638;13.764;2023-07-16T00:38:02;14.68;;;5.60;;
75737;SDS011;64356;45.638;13.764;2023-07-16T00:40:28;15.05;;;6.45;;
75737;SDS011;64356;45.638;13.764;2023-07-16T00:42:54;13.68;;;5.28;;
75737;SDS011;64356;45.638;13.764;2023-07-16T00:45:19;20.05;;;5.65;;
75737;SDS011;64356;45.638;13.764;2023-07-16T00:47:45;16.65;;;5.97;;
75737;SDS011;64356;45.638;13.764;2023-07-16T00:50:11;14.57;;;6.22;;
75737;SDS011;64356;45.638;13.764;2023-07-16T00:52:38;8.70;;;5.73;;
75737;SDS011;64356;45.638;13.764;2023-07-16T00:55:04;12.25;;;7.07;;
75737;SDS011;64356;45.638;13.764;2023-07-16T00:57:31;13.80;;;5.35;;
75737;SDS011;64356;45.638;13.764;2023-07-16T00:59:58;12.40;;;5.15;;
75737;SDS011;64356;45.638;13.764;2023-07-16T01:02:23;19.33;;;6.37;;
75737;SDS011;64356;45.638;13.764;2023-07-16T01:04:49;14.05;;;5.53;;
75737;SDS011;64356;45.638;13.764;2023-07-16T01:07:16;14.53;;;5.97;;
75737;SDS011;64356;45.638;13.764;2023-07-16T01:09:43;15.43;;;5.47;;
75737;SDS011;64356;45.638;13.764;2023-07-16T01:12:10;14.63;;;5.78;;
75737;SDS011;64356;45.638;13.764;2023-07-16T01:14:38;13.38;;;5.43;;
75737;SDS011;64356;45.638;13.764;2023-07-16T01:17:05;9.87;;;5.70;;
75737;SDS011;64356;45.638;13.764;2023-07-16T01:19:32;12.05;;;5.50;;
75737;SDS011;64356;45.638;13.764;2023-07-16T01:22:03;16.67;;;5.43;;
75737;SDS011;64356;45.638;13.764;2023-07-16T01:30:20;13.00;;;5.43;;
75737;SDS011;64356;45.638;13.764;2023-07-16T01:32:47;12.00;;;5.70;;
75737;SDS011;64356;45.638;13.764;2023-07-16T01:35:14;10.40;;;5.10;;
75737;SDS011;64356;45.638;13.764;2023-07-16T01:37:41;12.57;;;5.15;;
75737;SDS011;64356;45.638;13.764;2023-07-16T01:40:07;12.88;;;5.22;;
75737;SDS011;64356;45.638;13.764;2023-07-16T01:42:36;12.90;;;4.70;;
75737;SDS011;64356;45.638;13.764;2023-07-16T01:45:03;10.77;;;4.75;;
75737;SDS011;64356;45.638;13.764;2023-07-16T01:50:10;10.50;;;4.53;;
75737;SDS011;64356;45.638;13.764;2023-07-16T01:52:35;12.75;;;6.38;;
75737;SDS011;64356;45.638;13.764;2023-07-16T01:55:01;11.65;;;5.22;;
75737;SDS011;64356;45.638;13.764;2023-07-16T01:57:27;11.77;;;4.97;;
75737;SDS011;64356;45.638;13.764;2023-07-16T01:59:52;19.10;;;5.38;;
75737;SDS011;64356;45.638;13.764;2023-07-16T02:02:18;19.83;;;5.95;;
75737;SDS011;64356;45.638;13.764;2023-07-16T02:04:44;14.10;;;5.50;;
75737;SDS011;64356;45.638;13.764;2023-07-16T02:07:09;11.40;;;5.33;;
75737;SDS011;64356;45.638;13.764;2023-07-16T02:09:35;13.60;;;5.22;;
75737;SDS011;64356;45.638;13.764;2023-07-16T02:12:01;12.20;;;5.43;;
75737;SDS011;64356;45.638;13.764;2023-07-16T02:14:27;12.07;;;5.07;;
75737;SDS011;64356;45.638;13.764;2023-07-16T02:16:52;11.93;;;5.07;;
75737;SDS011;64356;45.638;13.764;2023-07-16T02:19:18;10.90;;;5.10;;
75737;SDS011;64356;45.638;13.764;2023-07-16T02:21:44;13.57;;;4.97;;
75737;SDS011;64356;45.638;13.764;2023-07-16T02:24:09;13.93;;;5.25;;
75737;SDS011;64356;45.638;13.764;2023-07-16T02:26:35;10.73;;;5.00;;
75737;SDS011;64356;45.638;13.764;2023-07-16T02:29:01;9.63;;;5.03;;
75737;SDS011;64356;45.638;13.764;2023-07-16T02:31:27;10.48;;;4.90;;
75737;SDS011;64356;45.638;13.764;2023-07-16T02:33:52;11.32;;;5.38;;
75737;SDS011;64356;45.638;13.764;2023-07-16T02:36:18;12.20;;;5.57;;
75737;SDS011;64356;45.638;13.764;2023-07-16T02:38:44;13.93;;;5.72;;
75737;SDS011;64356;45.638;13.764;2023-07-16T02:41:09;12.23;;;5.57;;
75737;SDS011;64356;45.638;13.764;2023-07-16T02:43:35;13.35;;;5.13;;
75737;SDS011;64356;45.638;13.764;2023-07-16T02:46:01;11.00;;;5.23;;
75737;SDS011;64356;45.638;13.764;2023-07-16T02:48:26;13.15;;;5.40;;
75737;SDS011;64356;45.638;13.764;2023-07-16T02:50:53;17.38;;;5.18;;
75737;SDS011;64356;45.638;13.764;2023-07-16T02:53:19;16.92;;;6.75;;
75737;SDS011;64356;45.638;13.764;2023-07-16T02:55:45;13.40;;;6.07;;
75737;SDS011;64356;45.638;13.764;2023-07-16T02:58:11;11.30;;;5.15;;
75737;SDS011;64356;45.638;13.764;2023-07-16T03:00:37;11.00;;;5.20;;
75737;SDS011;64356;45.638;13.764;2023-07-16T03:03:03;14.30;;;5.60;;
75737;SDS011;64356;45.638;13.764;2023-07-16T03:05:28;12.60;;;5.40;;
75737;SDS011;64356;45.638;13.764;2023-07-16T03:07:54;14.13;;;6.33;;
75737;SDS011;64356;45.638;13.764;2023-07-16T03:10:21;9.05;;;4.85;;
75737;SDS011;64356;45.638;13.764;2023-07-16T03:12:47;20.55;;;6.13;;
75737;SDS011;64356;45.638;13.764;2023-07-16T03:15:13;17.70;;;6.00;;
75737;SDS011;64356;45.638;13.764;2023-07-16T03:17:39;13.15;;;5.55;;
75737;SDS011;64356;45.638;13.764;2023-07-16T03:20:05;12.05;;;4.90;;
75737;SDS011;64356;45.638;13.764;2023-07-16T03:22:31;13.50;;;5.55;;
75737;SDS011;64356;45.638;13.764;2023-07-16T03:24:57;14.53;;;5.53;;
75737;SDS011;64356;45.638;13.764;2023-07-16T03:27:23;13.50;;;5.20;;
75737;SDS011;64356;45.638;13.764;2023-07-16T03:29:48;12.40;;;5.70;;
75737;SDS011;64356;45.638;13.764;2023-07-16T03:32:14;16.05;;;6.00;;
75737;SDS011;64356;45.638;13.764;2023-07-16T03:34:40;12.50;;;6.10;;
75737;SDS011;64356;45.638;13.764;2023-07-16T03:37:06;14.07;;;5.32;;
75737;SDS011;64356;45.638;13.764;2023-07-16T03:39:31;11.13;;;4.78;;
75737;SDS011;64356;45.638;13.764;2023-07-16T03:41:57;12.00;;;5.45;;
75737;SDS011;64356;45.638;13.764;2023-07-16T03:44:23;15.85;;;5.65;;
75737;SDS011;64356;45.638;13.764;2023-07-16T03:46:48;13.27;;;5.60;;
75737;SDS011;64356;45.638;13.764;2023-07-16T03:49:14;18.60;;;5.93;;
75737;SDS011;64356;45.638;13.764;2023-07-16T03:51:40;15.93;;;5.22;;
75737;SDS011;64356;45.638;13.764;2023-07-16T03:54:06;15.10;;;5.82;;
75737;SDS011;64356;45.638;13.764;2023-07-16T03:56:31;10.23;;;5.03;;
75737;SDS011;64356;45.638;13.764;2023-07-16T03:58:57;17.65;;;6.60;;
75737;SDS011;64356;45.638;13.764;2023-07-16T04:01:23;13.15;;;5.40;;
75737;SDS011;64356;45.638;13.764;2023-07-16T04:03:48;12.23;;;6.00;;
75737;SDS011;64356;45.638;13.764;2023-07-16T04:06:14;17.85;;;6.03;;
75737;SDS011;64356;45.638;13.764;2023-07-16T04:08:40;10.05;;;5.72;;
75737;SDS011;64356;45.638;13.764;2023-07-16T04:11:05;12.30;;;6.15;;
75737;SDS011;64356;45.638;13.764;2023-07-16T04:13:32;19.60;;;6.55;;
75737;SDS011;64356;45.638;13.764;2023-07-16T04:15:57;10.52;;;6.03;;
75737;SDS011;64356;45.638;13.764;2023-07-16T04:18:24;16.40;;;5.75;;
75737;SDS011;64356;45.638;13.764;2023-07-16T04:20:50;10.95;;;5.90;;
75737;SDS011;64356;45.638;13.764;2023-07-16T04:23:16;13.15;;;5.28;;
75737;SDS011;64356;45.638;13.764;2023-07-16T04:25:42;14.18;;;6.10;;
75737;SDS011;64356;45.638;13.764;2023-07-16T04:28:08;16.40;;;6.25;;
75737;SDS011;64356;45.638;13.764;2023-07-16T04:30:34;14.70;;;5.60;;
75737;SDS011;64356;45.638;13.764;2023-07-16T04:33:02;20.17;;;6.35;;
75737;SDS011;64356;45.638;13.764;2023-07-16T04:35:28;15.82;;;6.63;;
75737;SDS011;64356;45.638;13.764;2023-07-16T04:37:54;14.70;;;6.55;;
75737;SDS011;64356;45.638;13.764;2023-07-16T04:40:19;11.18;;;6.40;;
75737;SDS011;64356;45.638;13.764;2023-07-16T04:42:45;12.33;;;6.20;;
75737;SDS011;64356;45.638;13.764;2023-07-16T04:45:11;15.80;;;6.55;;
75737;SDS011;64356;45.638;13.764;2023-07-16T04:47:37;10.73;;;6.35;;
75737;SDS011;64356;45.638;13.764;2023-07-16T04:50:02;13.32;;;5.90;;
75737;SDS011;64356;45.638;13.764;2023-07-16T04:52:28;25.52;;;6.00;;
75737;SDS011;64356;45.638;13.764;2023-07-16T04:54:54;21.15;;;6.47;;
75737;SDS011;64356;45.638;13.764;2023-07-16T04:57:20;16.40;;;6.00;;
75737;SDS011;64356;45.638;13.764;2023-07-16T04:59:46;14.20;;;6.18;;
75737;SDS011;64356;45.638;13.764;2023-07-16T05:02:11;14.20;;;6.00;;
75737;SDS011;64356;45.638;13.764;2023-07-16T05:04:39;12.00;;;5.72;;
75737;SDS011;64356;45.638;13.764;2023-07-16T05:07:04;14.13;;;6.13;;
75737;SDS011;64356;45.638;13.764;2023-07-16T05:09:30;17.45;;;6.60;;
75737;SDS011;64356;45.638;13.764;2023-07-16T05:11:56;16.85;;;6.68;;
75737;SDS011;64356;45.638;13.764;2023-07-16T05:14:22;13.73;;;5.97;;
75737;SDS011;64356;45.638;13.764;2023-07-16T05:16:47;16.30;;;6.70;;
75737;SDS011;64356;45.638;13.764;2023-07-16T05:19:13;12.82;;;6.40;;
75737;SDS011;64356;45.638;13.764;2023-07-16T05:21:39;13.85;;;6.70;;
75737;SDS011;64356;45.638;13.764;2023-07-16T05:24:04;16.20;;;6.23;;
75737;SDS011;64356;45.638;13.764;2023-07-16T05:26:30;18.55;;;7.15;;
75737;SDS011;64356;45.638;13.764;2023-07-16T05:28:56;12.95;;;6.30;;
75737;SDS011;64356;45.638;13.764;2023-07-16T05:31:21;16.70;;;7.32;;
75737;SDS011;64356;45.638;13.764;2023-07-16T05:33:47;10.60;;;5.83;;
75737;SDS011;64356;45.638;13.764;2023-07-16T05:36:13;11.67;;;6.53;;
75737;SDS011;64356;45.638;13.764;2023-07-16T05:38:39;15.40;;;6.18;;
75737;SDS011;64356;45.638;13.764;2023-07-16T05:41:04;13.45;;;6.53;;
75737;SDS011;64356;45.638;13.764;2023-07-16T05:43:31;11.43;;;5.80;;
75737;SDS011;64356;45.638;13.764;2023-07-16T05:45:57;13.00;;;6.65;;
75737;SDS011;64356;45.638;13.764;2023-07-16T05:48:24;14.15;;;5.95;;
75737;SDS011;64356;45.638;13.764;2023-07-16T05:50:49;12.45;;;6.15;;
75737;SDS011;64356;45.638;13.764;2023-07-16T05:53:15;18.30;;;6.63;;
75737;SDS011;64356;45.638;13.764;2023-07-16T05:55:41;14.75;;;7.35;;
75737;SDS011;64356;45.638;13.764;2023-07-16T05:58:07;17.70;;;6.70;;
75737;SDS011;64356;45.638;13.764;2023-07-16T06:00:33;18.10;;;7.45;;
75737;SDS011;64356;45.638;13.764;2023-07-16T06:03:02;16.27;;;6.27;;
75737;SDS011;64356;45.638;13.764;2023-07-16T06:05:28;14.43;;;6.82;;
75737;SDS011;64356;45.638;13.764;2023-07-16T06:07:59;13.05;;;6.20;;
75737;SDS011;64356;45.638;13.764;2023-07-16T06:10:25;13.48;;;7.20;;
75737;SDS011;64356;45.638;13.764;2023-07-16T06:12:51;13.50;;;6.72;;
75737;SDS011;64356;45.638;13.764;2023-07-16T06:15:16;17.10;;;7.87;;
75737;SDS011;64356;45.638;13.764;2023-07-16T06:17:42;14.05;;;6.35;;
75737;SDS011;64356;45.638;13.764;2023-07-16T06:20:08;11.57;;;5.77;;
75737;SDS011;64356;45.638;13.764;2023-07-16T06:22:34;20.30;;;6.90;;
75737;SDS011;64356;45.638;13.764;2023-07-16T06:25:00;13.80;;;6.25;;
75737;SDS011;64356;45.638;13.764;2023-07-16T06:27:26;12.15;;;6.47;;
75737;SDS011;64356;45.638;13.764;2023-07-16T06:29:52;16.60;;;7.07;;
75737;SDS011;64356;45.638;13.764;2023-07-16T06:32:17;11.70;;;6.40;;
75737;SDS011;64356;45.638;13.764;2023-07-16T06:34:43;17.50;;;6.88;;
75737;SDS011;64356;45.638;13.764;2023-07-16T06:37:09;17.13;;;6.80;;
75737;SDS011;64356;45.638;13.764;2023-07-16T06:39:34;19.40;;;7.28;;
75737;SDS011;64356;45.638;13.764;2023-07-16T06:42:00;16.37;;;7.30;;
75737;SDS011;64356;45.638;13.764;2023-07-16T06:44:26;12.20;;;6.50;;
75737;SDS011;64356;45.638;13.764;2023-07-16T06:46:51;17.10;;;6.20;;
75737;SDS011;64356;45.638;13.764;2023-07-16T06:49:18;12.40;;;7.22;;
75737;SDS011;64356;45.638;13.764;2023-07-16T06:51:43;13.82;;;7.25;;
75737;SDS011;64356;45.638;13.764;2023-07-16T06:54:09;11.00;;;6.55;;
75737;SDS011;64356;45.638;13.764;2023-07-16T06:56:35;12.00;;;6.70;;
75737;SDS011;64356;45.638;13.764;2023-07-16T06:59:00;15.05;;;7.20;;
75737;SDS011;64356;45.638;13.764;2023-07-16T07:01:26;17.60;;;7.13;;
75737;SDS011;64356;45.638;13.764;2023-07-16T07:03:53;12.53;;;7.23;;
75737;SDS011;64356;45.638;13.764;2023-07-16T07:06:19;12.95;;;7.13;;
75737;SDS011;64356;45.638;13.764;2023-07-16T07:08:46;9.27;;;6.18;;
75737;SDS011;64356;45.638;13.764;2023-07-16T07:11:12;11.45;;;6.70;;
75737;SDS011;64356;45.638;13.764;2023-07-16T07:13:37;18.98;;;7.90;;
75737;SDS011;64356;45.638;13.764;2023-07-16T07:16:03;15.43;;;6.18;;
75737;SDS011;64356;45.638;13.764;2023-07-16T07:18:29;12.00;;;6.37;;
75737;SDS011;64356;45.638;13.764;2023-07-16T07:20:55;12.80;;;6.77;;
75737;SDS011;64356;45.638;13.764;2023-07-16T07:23:21;11.27;;;6.93;;
75737;SDS011;64356;45.638;13.764;2023-07-16T07:25:50;13.23;;;6.38;;
75737;SDS011;64356;45.638;13.764;2023-07-16T07:28:16;15.33;;;7.10;;
75737;SDS011;64356;45.638;13.764;2023-07-16T07:30:42;17.90;;;6.70;;
75737;SDS011;64356;45.638;13.764;2023-07-16T07:33:08;15.10;;;6.43;;
75737;SDS011;64356;45.638;13.764;2023-07-16T07:35:34;18.53;;;7.47;;
75737;SDS011;64356;45.638;13.764;2023-07-16T07:38:00;13.55;;;6.75;;
75737;SDS011;64356;45.638;13.764;2023-07-16T07:40:25;14.77;;;6.55;;
75737;SDS011;64356;45.638;13.764;2023-07-16T07:42:51;17.88;;;6.43;;
75737;SDS011;64356;45.638;13.764;2023-07-16T07:45:17;16.33;;;7.22;;
75737;SDS011;64356;45.638;13.764;2023-07-16T07:47:43;23.10;;;8.60;;
75737;SDS011;64356;45.638;13.764;2023-07-16T07:50:09;21.13;;;8.35;;
75737;SDS011;64356;45.638;13.764;2023-07-16T07:52:35;16.47;;;6.67;;
75737;SDS011;64356;45.638;13.764;2023-07-16T07:55:01;14.97;;;6.67;;
75737;SDS011;64356;45.638;13.764;2023-07-16T07:57:27;13.18;;;7.10;;
75737;SDS011;64356;45.638;13.764;2023-07-16T07:59:52;12.02;;;6.55;;
75737;SDS011;64356;45.638;13.764;2023-07-16T08:02:22;17.35;;;6.60;;
75737;SDS011;64356;45.638;13.764;2023-07-16T08:04:50;10.00;;;6.10;;
75737;SDS011;64356;45.638;13.764;2023-07-16T08:07:16;11.35;;;6.38;;
75737;SDS011;64356;45.638;13.764;2023-07-16T08:09:42;12.38;;;6.32;;
75737;SDS011;64356;45.638;13.764;2023-07-16T08:12:08;9.50;;;6.70;;
75737;SDS011;64356;45.638;13.764;2023-07-16T08:14:34;14.60;;;6.50;;
75737;SDS011;64356;45.638;13.764;2023-07-16T08:16:59;18.98;;;6.47;;
75737;SDS011;64356;45.638;13.764;2023-07-16T08:19:25;14.35;;;6.70;;
75737;SDS011;64356;45.638;13.764;2023-07-16T08:21:51;13.13;;;7.00;;
75737;SDS011;64356;45.638;13.764;2023-07-16T08:24:17;20.83;;;8.20;;
75737;SDS011;64356;45.638;13.764;2023-07-16T08:26:42;18.40;;;7.30;;
75737;SDS011;64356;45.638;13.764;2023-07-16T08:29:08;14.40;;;7.15;;
75737;SDS011;64356;45.638;13.764;2023-07-16T08:31:34;16.45;;;7.70;;
75737;SDS011;64356;45.638;13.764;2023-07-16T08:34:00;10.50;;;7.05;;
75737;SDS011;64356;45.638;13.764;2023-07-16T08:36:25;14.47;;;7.10;;
75737;SDS011;64356;45.638;13.764;2023-07-16T08:38:51;14.25;;;7.10;;
75737;SDS011;64356;45.638;13.764;2023-07-16T08:41:17;19.45;;;7.20;;
75737;SDS011;64356;45.638;13.764;2023-07-16T08:43:45;14.85;;;7.15;;
75737;SDS011;64356;45.638;13.764;2023-07-16T08:46:12;13.55;;;7.50;;
75737;SDS011;64356;45.638;13.764;2023-07-16T08:48:40;18.90;;;6.80;;
75737;SDS011;64356;45.638;13.764;2023-07-16T08:51:05;17.45;;;7.72;;
75737;SDS011;64356;45.638;13.764;2023-07-16T08:53:32;16.45;;;7.60;;
75737;SDS011;64356;45.638;13.764;2023-07-16T08:55:58;17.33;;;7.03;;
75737;SDS011;64356;45.638;13.764;2023-07-16T08:58:24;13.50;;;7.25;;
75737;SDS011;64356;45.638;13.764;2023-07-16T09:00:50;13.07;;;7.22;;
75737;SDS011;64356;45.638;13.764;2023-07-16T09:03:16;17.13;;;7.23;;
75737;SDS011;64356;45.638;13.764;2023-07-16T09:05:46;17.33;;;7.75;;
75737;SDS011;64356;45.638;13.764;2023-07-16T09:08:11;14.10;;;7.43;;
75737;SDS011;64356;45.638;13.764;2023-07-16T09:10:39;17.42;;;6.70;;
75737;SDS011;64356;45.638;13.764;2023-07-16T09:13:06;14.25;;;7.25;;
75737;SDS011;64356;45.638;13.764;2023-07-16T09:15:32;10.80;;;6.40;;
75737;SDS011;64356;45.638;13.764;2023-07-16T09:17:59;15.97;;;6.97;;
75737;SDS011;64356;45.638;13.764;2023-07-16T09:20:25;28.38;;;8.20;;
75737;SDS011;64356;45.638;13.764;2023-07-16T09:22:55;19.90;;;7.75;;
75737;SDS011;64356;45.638;13.764;2023-07-16T09:25:31;16.58;;;7.70;;
75737;SDS011;64356;45.638;13.764;2023-07-16T09:27:57;20.77;;;8.20;;
75737;SDS011;64356;45.638;13.764;2023-07-16T09:30:30;14.40;;;7.57;;
75737;SDS011;64356;45.638;13.764;2023-07-16T09:33:15;13.55;;;6.85;;
75737;SDS011;64356;45.638;13.764;2023-07-16T09:35:41;11.95;;;6.85;;
75737;SDS011;64356;45.638;13.764;2023-07-16T09:38:08;14.98;;;6.75;;
75737;SDS011;64356;45.638;13.764;2023-07-16T09:40:37;20.10;;;7.40;;
75737;SDS011;64356;45.638;13.764;2023-07-16T09:43:04;18.77;;;7.13;;
75737;SDS011;64356;45.638;13.764;2023-07-16T09:45:31;13.00;;;6.60;;
75737;SDS011;64356;45.638;13.764;2023-07-16T09:47:57;15.63;;;7.13;;
75737;SDS011;64356;45.638;13.764;2023-07-16T09:50:23;12.10;;;6.45;;
75737;SDS011;64356;45.638;13.764;2023-07-16T09:52:52;17.42;;;6.88;;
75737;SDS011;64356;45.638;13.764;2023-07-16T09:55:18;15.00;;;6.65;;
75737;SDS011;64356;45.638;13.764;2023-07-16T09:57:46;12.88;;;6.93;;
75737;SDS011;64356;45.638;13.764;2023-07-16T10:00:13;16.85;;;7.18;;
75737;SDS011;64356;45.638;13.764;2023-07-16T10:02:40;16.17;;;7.28;;
75737;SDS011;64356;45.638;13.764;2023-07-16T10:07:40;20.65;;;6.93;;
75737;SDS011;64356;45.638;13.764;2023-07-16T10:10:09;15.45;;;6.68;;
75737;SDS011;64356;45.638;13.764;2023-07-16T10:12:36;16.23;;;6.90;;
75737;SDS011;64356;45.638;13.764;2023-07-16T10:15:03;14.70;;;6.23;;
75737;SDS011;64356;45.638;13.764;2023-07-16T10:17:31;17.00;;;6.70;;
75737;SDS011;64356;45.638;13.764;2023-07-16T10:19:58;12.27;;;6.30;;
75737;SDS011;64356;45.638;13.764;2023-07-16T10:25:00;18.05;;;6.90;;
75737;SDS011;64356;45.638;13.764;2023-07-16T10:27:27;19.02;;;6.82;;
75737;SDS011;64356;45.638;13.764;2023-07-16T10:29:57;12.43;;;5.93;;
75737;SDS011;64356;45.638;13.764;2023-07-16T10:32:27;12.38;;;6.25;;
75737;SDS011;64356;45.638;13.764;2023-07-16T10:34:55;13.65;;;5.40;;
75737;SDS011;64356;45.638;13.764;2023-07-16T10:37:21;21.33;;;7.13;;
75737;SDS011;64356;45.638;13.764;2023-07-16T10:39:48;19.73;;;6.47;;
75737;SDS011;64356;45.638;13.764;2023-07-16T10:42:17;15.30;;;6.10;;
75737;SDS011;64356;45.638;13.764;2023-07-16T10:44:44;14.20;;;6.60;;
75737;SDS011;64356;45.638;13.764;2023-07-16T10:47:23;11.90;;;6.15;;
75737;SDS011;64356;45.638;13.764;2023-07-16T10:49:50;15.43;;;6.55;;
75737;SDS011;64356;45.638;13.764;2023-07-16T10:52:20;13.98;;;6.20;;
75737;SDS011;64356;45.638;13.764;2023-07-16T10:54:47;10.38;;;5.97;;
75737;SDS011;64356;45.638;13.764;2023-07-16T10:57:15;12.32;;;6.00;;
75737;SDS011;64356;45.638;13.764;2023-07-16T10:59:41;15.75;;;7.10;;
75737;SDS011;64356;45.638;13.764;2023-07-16T11:02:12;9.73;;;5.35;;
75737;SDS011;64356;45.638;13.764;2023-07-16T11:04:39;12.77;;;5.77;;
75737;SDS011;64356;45.638;13.764;2023-07-16T11:07:06;8.77;;;5.68;;
75737;SDS011;64356;45.638;13.764;2023-07-16T11:12:11;14.23;;;5.77;;
75737;SDS011;64356;45.638;13.764;2023-07-16T11:14:38;13.50;;;6.65;;
75737;SDS011;64356;45.638;13.764;2023-07-16T11:17:09;16.27;;;5.80;;
75737;SDS011;64356;45.638;13.764;2023-07-16T11:19:36;21.50;;;6.97;;
75737;SDS011;64356;45.638;13.764;2023-07-16T11:22:03;14.53;;;6.03;;
75737;SDS011;64356;45.638;13.764;2023-07-16T11:24:35;11.10;;;6.23;;
75737;SDS011;64356;45.638;13.764;2023-07-16T11:27:05;13.65;;;6.35;;
75737;SDS011;64356;45.638;13.764;2023-07-16T11:29:59;20.75;;;6.95;;
75737;SDS011;64356;45.638;13.764;2023-07-16T11:34:58;17.65;;;5.78;;
75737;SDS011;64356;45.638;13.764;2023-07-16T11:37:25;15.30;;;5.60;;
75737;SDS011;64356;45.638;13.764;2023-07-16T11:39:58;19.05;;;5.90;;
75737;SDS011;64356;45.638;13.764;2023-07-16T11:42:28;10.80;;;5.37;;
75737;SDS011;64356;45.638;13.764;2023-07-16T11:44:55;18.30;;;5.53;;
75737;SDS011;64356;45.638;13.764;2023-07-16T11:47:22;15.80;;;6.23;;
75737;SDS011;64356;45.638;13.764;2023-07-16T11:49:48;14.88;;;6.35;;
75737;SDS011;64356;45.638;13.764;2023-07-16T11:52:14;19.77;;;6.57;;
75737;SDS011;64356;45.638;13.764;2023-07-16T11:54:43;13.80;;;5.63;;
75737;SDS011;64356;45.638;13.764;2023-07-16T11:57:09;16.88;;;7.40;;
75737;SDS011;64356;45.638;13.764;2023-07-16T11:59:34;16.25;;;6.03;;
75737;SDS011;64356;45.638;13.764;2023-07-16T12:02:00;16.85;;;6.60;;
75737;SDS011;64356;45.638;13.764;2023-07-16T12:04:27;15.07;;;7.28;;
75737;SDS011;64356;45.638;13.764;2023-07-16T12:06:53;9.00;;;5.45;;
75737;SDS011;64356;45.638;13.764;2023-07-16T12:09:19;15.75;;;6.30;;
75737;SDS011;64356;45.638;13.764;2023-07-16T12:11:45;12.00;;;6.65;;
75737;SDS011;64356;45.638;13.764;2023-07-16T12:14:11;11.45;;;6.47;;
75737;SDS011;64356;45.638;13.764;2023-07-16T12:16:38;14.90;;;5.40;;
75737;SDS011;64356;45.638;13.764;2023-07-16T12:19:04;12.45;;;6.55;;
75737;SDS011;64356;45.638;13.764;2023-07-16T12:21:32;16.60;;;6.00;;
75737;SDS011;64356;45.638;13.764;2023-07-16T12:23:57;16.85;;;6.32;;
75737;SDS011;64356;45.638;13.764;2023-07-16T12:26:23;14.38;;;6.30;;
75737;SDS011;64356;45.638;13.764;2023-07-16T12:28:49;12.32;;;6.50;;
75737;SDS011;64356;45.638;13.764;2023-07-16T12:31:15;20.70;;;6.60;;
75737;SDS011;64356;45.638;13.764;2023-07-16T12:33:42;15.70;;;6.30;;
75737;SDS011;64356;45.638;13.764;2023-07-16T12:36:08;12.48;;;5.57;;
75737;SDS011;64356;45.638;13.764;2023-07-16T12:38:34;12.18;;;6.18;;
75737;SDS011;64356;45.638;13.764;2023-07-16T12:40:59;12.70;;;6.30;;
75737;SDS011;64356;45.638;13.764;2023-07-16T12:43:25;15.55;;;5.80;;
75737;SDS011;64356;45.638;13.764;2023-07-16T12:45:51;12.25;;;5.85;;
75737;SDS011;64356;45.638;13.764;2023-07-16T12:48:16;17.95;;;5.95;;
75737;SDS011;64356;45.638;13.764;2023-07-16T12:50:42;10.47;;;5.63;;
75737;SDS011;64356;45.638;13.764;2023-07-16T12:53:08;13.77;;;6.17;;
75737;SDS011;64356;45.638;13.764;2023-07-16T12:55:34;8.63;;;5.47;;
75737;SDS011;64356;45.638;13.764;2023-07-16T12:57:59;14.43;;;6.03;;
75737;SDS011;64356;45.638;13.764;2023-07-16T13:00:25;14.98;;;5.95;;
75737;SDS011;64356;45.638;13.764;2023-07-16T13:02:51;11.10;;;5.40;;
75737;SDS011;64356;45.638;13.764;2023-07-16T13:05:16;14.25;;;5.60;;
75737;SDS011;64356;45.638;13.764;2023-07-16T13:07:42;13.17;;;6.97;;
75737;SDS011;64356;45.638;13.764;2023-07-16T13:10:08;17.92;;;5.97;;
75737;SDS011;64356;45.638;13.764;2023-07-16T13:12:34;13.93;;;5.88;;
75737;SDS011;64356;45.638;13.764;2023-07-16T13:15:00;17.75;;;5.60;;
75737;SDS011;64356;45.638;13.764;2023-07-16T13:17:26;14.77;;;5.82;;
75737;SDS011;64356;45.638;13.764;2023-07-16T13:19:51;17.83;;;5.60;;
75737;SDS011;64356;45.638;13.764;2023-07-16T13:22:17;17.80;;;6.40;;
75737;SDS011;64356;45.638;13.764;2023-07-16T13:24:43;17.10;;;5.80;;
75737;SDS011;64356;45.638;13.764;2023-07-16T13:27:19;16.38;;;6.25;;
75737;SDS011;64356;45.638;13.764;2023-07-16T13:29:46;17.73;;;6.07;;
75737;SDS011;64356;45.638;13.764;2023-07-16T13:32:12;14.20;;;6.30;;
75737;SDS011;64356;45.638;13.764;2023-07-16T13:34:37;12.90;;;6.05;;
75737;SDS011;64356;45.638;13.764;2023-07-16T13:37:03;17.05;;;6.45;;
75737;SDS011;64356;45.638;13.764;2023-07-16T13:39:29;16.45;;;6.57;;
75737;SDS011;64356;45.638;13.764;2023-07-16T13:41:55;13.52;;;6.22;;
75737;SDS011;64356;45.638;13.764;2023-07-16T13:44:20;13.40;;;6.15;;
75737;SDS011;64356;45.638;13.764;2023-07-16T13:46:46;14.17;;;6.33;;
75737;SDS011;64356;45.638;13.764;2023-07-16T13:49:12;12.40;;;5.60;;
75737;SDS011;64356;45.638;13.764;2023-07-16T13:51:38;18.60;;;7.13;;
75737;SDS011;64356;45.638;13.764;2023-07-16T13:54:04;12.55;;;5.82;;
75737;SDS011;64356;45.638;13.764;2023-07-16T13:56:30;13.40;;;6.90;;
75737;SDS011;64356;45.638;13.764;2023-07-16T13:58:56;16.00;;;7.20;;
75737;SDS011;64356;45.638;13.764;2023-07-16T14:01:22;14.73;;;6.55;;
75737;SDS011;64356;45.638;13.764;2023-07-16T14:03:48;15.20;;;5.65;;
75737;SDS011;64356;45.638;13.764;2023-07-16T14:06:14;11.10;;;5.18;;
75737;SDS011;64356;45.638;13.764;2023-07-16T14:08:40;13.60;;;6.70;;
75737;SDS011;64356;45.638;13.764;2023-07-16T14:11:05;12.32;;;6.05;;
75737;SDS011;64356;45.638;13.764;2023-07-16T14:13:31;13.52;;;5.43;;
75737;SDS011;64356;45.638;13.764;2023-07-16T14:15:57;11.50;;;5.57;;
75737;SDS011;64356;45.638;13.764;2023-07-16T14:18:23;11.85;;;6.00;;
75737;SDS011;64356;45.638;13.764;2023-07-16T14:20:49;17.33;;;6.00;;
75737;SDS011;64356;45.638;13.764;2023-07-16T14:23:14;15.07;;;5.32;;
75737;SDS011;64356;45.638;13.764;2023-07-16T14:25:40;9.10;;;5.05;;
75737;SDS011;64356;45.638;13.764;2023-07-16T14:28:06;22.48;;;6.47;;
75737;SDS011;64356;45.638;13.764;2023-07-16T14:30:31;12.70;;;6.30;;
75737;SDS011;64356;45.638;13.764;2023-07-16T14:32:57;14.52;;;6.55;;
75737;SDS011;64356;45.638;13.764;2023-07-16T14:35:24;13.90;;;6.53;;